Time;durP1;ratioP1;P1;durP2;ratioP2;P2;SDS_P1;SDS_P2;PMS_P1;PMS_P2;Temp;Humidity;BMP_temperature;BMP_pressure;BME280_temperature;BME280_humidity;BME280_pressure;Samples;Min_cycle;Max_cycle;Signal;HPM_P1;HPM_P2
2023/03/10 00:02:21;;;;;;;0.20;0.00;;;15.90;99.90;;;;;;21153499;28;20780;-71
2023/03/10 00:12:26;;;;;;;0.20;0.10;;;16.10;99.90;;;;;;21126498;28;20763;-70
2023/03/10 00:22:30;;;;;;;0.20;0.10;;;15.90;99.90;;;;;;21069683;28;20974;-68
2023/03/10 00:32:36;;;;;;;0.20;0.10;;;15.90;99.90;;;;;;21086499;27;20771;-68
2023/03/10 00:42:40;;;;;;;0.20;0.10;;;15.50;99.90;;;;;;21111646;28;20438;-68
2023/03/10 00:52:45;;;;;;;0.20;0.00;;;14.90;99.90;;;;;;21109825;28;20402;-68
2023/03/10 01:02:51;;;;;;;0.20;0.10;;;14.60;99.90;;;;;;21106985;28;20404;-68
2023/03/10 01:12:56;;;;;;;0.20;0.00;;;14.50;99.90;;;;;;21105276;28;20436;-68
2023/03/10 01:23:01;;;;;;;0.20;0.00;;;14.40;99.90;;;;;;21064805;28;20403;-69
2023/03/10 01:33:07;;;;;;;0.20;0.00;;;14.90;99.90;;;;;;21142090;28;20421;-69
2023/03/10 01:43:33;;;;;;;0.20;0.00;;;14.90;99.90;;;;;;21079964;28;20444;-69
2023/03/10 01:53:39;;;;;;;0.20;0.10;;;15.60;99.90;;;;;;21144966;28;20429;-69
2023/03/10 02:03:48;;;;;;;0.20;0.10;;;15.60;99.90;;;;;;21150403;28;20409;-70
2023/03/10 02:13:54;;;;;;;0.20;0.00;;;15.70;99.90;;;;;;21136679;28;20979;-69
2023/03/10 02:24:04;;;;;;;0.20;0.10;;;15.90;99.90;;;;;;21102659;28;20404;-69
2023/03/10 02:34:10;;;;;;;0.20;0.10;;;15.90;99.90;;;;;;21103402;28;20379;-69
2023/03/10 02:44:16;;;;;;;0.20;0.00;;;15.70;99.90;;;;;;21102716;28;20469;-69
2023/03/10 02:54:22;;;;;;;0.20;0.00;;;15.30;99.90;;;;;;21102021;28;20399;-69
2023/03/10 03:04:25;;;;;;;0.20;0.08;;;15.40;99.90;;;;;;21105813;28;20836;-69
2023/03/10 03:14:30;;;;;;;0.20;0.10;;;15.20;99.90;;;;;;21102814;28;20405;-70
2023/03/10 03:24:34;;;;;;;0.20;0.10;;;15.50;99.90;;;;;;21113902;28;20400;-69
2023/03/10 03:34:39;;;;;;;0.20;0.00;;;15.40;99.90;;;;;;21117249;27;20438;-70
2023/03/10 03:44:43;;;;;;;0.20;0.00;;;15.30;99.90;;;;;;21097071;28;20414;-69
2023/03/10 03:54:49;;;;;;;0.20;0.10;;;15.20;99.90;;;;;;21118257;28;20401;-69
2023/03/10 04:04:54;;;;;;;0.20;0.10;;;15.00;99.90;;;;;;21102203;28;20952;-69
2023/03/10 04:14:59;;;;;;;0.20;0.10;;;15.00;99.90;;;;;;21113039;28;20392;-69
2023/03/10 04:25:04;;;;;;;0.20;0.10;;;15.00;99.90;;;;;;21071256;28;20424;-69
2023/03/10 04:35:12;;;;;;;0.20;0.10;;;14.90;99.90;;;;;;21069594;28;20404;-68
2023/03/10 04:45:16;;;;;;;0.20;0.10;;;14.90;99.90;;;;;;21083874;28;20423;-69
2023/03/10 04:55:22;;;;;;;0.20;0.10;;;14.90;99.90;;;;;;21112363;28;20400;-70
2023/03/10 05:05:26;;;;;;;0.20;0.10;;;14.90;99.90;;;;;;21108259;28;20521;-71
2023/03/10 05:15:34;;;;;;;0.20;0.10;;;15.20;99.90;;;;;;21105809;28;20397;-70
2023/03/10 05:25:40;;;;;;;0.20;0.10;;;15.10;99.90;;;;;;21108690;28;20543;-71
2023/03/10 05:35:45;;;;;;;0.20;0.10;;;15.20;99.90;;;;;;21105161;28;20914;-70
2023/03/10 05:45:55;;;;;;;0.20;0.00;;;15.20;99.90;;;;;;21106121;28;20414;-71
2023/03/10 05:56:00;;;;;;;0.20;0.10;;;15.00;99.90;;;;;;21105675;28;20401;-72
2023/03/10 06:06:06;;;;;;;0.20;0.10;;;15.10;99.90;;;;;;21103865;28;20463;-71
2023/03/10 06:16:12;;;;;;;0.20;0.10;;;15.30;99.90;;;;;;21103096;28;20502;-71
2023/03/10 06:26:17;;;;;;;0.20;0.10;;;15.30;99.90;;;;;;21100932;28;20403;-71
2023/03/10 06:36:25;;;;;;;0.20;0.00;;;15.30;99.90;;;;;;21102432;28;20394;-69
2023/03/10 06:46:29;;;;;;;0.20;0.00;;;15.50;99.90;;;;;;21095739;28;20808;-68
2023/03/10 06:56:34;;;;;;;0.20;0.10;;;15.50;99.90;;;;;;21099068;28;20393;-74
2023/03/10 07:06:38;;;;;;;0.20;0.10;;;15.60;99.90;;;;;;21093882;28;20442;-68
2023/03/10 07:16:45;;;;;;;0.20;0.00;;;15.60;99.90;;;;;;21098011;28;20448;-70
2023/03/10 07:26:49;;;;;;;0.20;0.10;;;15.70;99.90;;;;;;21099344;28;20475;-70
2023/03/10 07:36:54;;;;;;;0.20;0.10;;;15.90;99.90;;;;;;21095383;28;20499;-78
2023/03/10 07:46:58;;;;;;;0.20;0.08;;;16.10;99.90;;;;;;21097272;28;20404;-71
2023/03/10 07:57:04;;;;;;;0.20;0.10;;;16.20;99.90;;;;;;21097942;28;20434;-70
2023/03/10 08:07:09;;;;;;;0.20;0.10;;;16.40;99.90;;;;;;21102972;28;20412;-71
2023/03/10 08:17:14;;;;;;;0.20;0.03;;;16.60;99.90;;;;;;21112751;28;20774;-71
2023/03/10 08:27:18;;;;;;;0.20;0.00;;;16.90;99.90;;;;;;21109144;28;21010;-72
2023/03/10 08:37:23;;;;;;;0.20;0.10;;;17.20;99.90;;;;;;21066759;28;20397;-70
2023/03/10 08:47:27;;;;;;;0.20;0.10;;;17.10;99.90;;;;;;21129594;28;20861;-69
2023/03/10 08:57:36;;;;;;;0.20;0.00;;;17.00;99.90;;;;;;21068079;28;20450;-70
2023/03/10 09:07:39;;;;;;;0.20;0.10;;;17.20;99.90;;;;;;21129720;28;20503;-73
2023/03/10 09:17:45;;;;;;;0.20;0.10;;;17.60;99.90;;;;;;21115762;28;20401;-72
2023/03/10 09:27:49;;;;;;;0.20;0.10;;;18.10;99.90;;;;;;21063240;28;20430;-71
2023/03/10 09:37:55;;;;;;;0.20;0.10;;;18.60;99.90;;;;;;21048294;28;20401;-69
2023/03/10 09:48:13;;;;;;;0.20;0.10;;;18.70;99.90;;;;;;21064487;28;20733;-72
2023/03/10 09:58:28;;;;;;;0.20;0.10;;;18.80;99.90;;;;;;21061213;28;20411;-73
2023/03/10 10:08:41;;;;;;;0.20;0.07;;;19.20;99.90;;;;;;21061675;28;20444;-72
2023/03/10 10:18:58;;;;;;;0.20;0.00;;;19.80;99.90;;;;;;21059482;28;20482;-70
2023/03/10 10:29:11;;;;;;;0.20;0.00;;;20.20;99.90;;;;;;21041725;28;20406;-72
2023/03/10 10:39:25;;;;;;;0.20;0.00;;;20.70;99.90;;;;;;21059534;28;20416;-70
2023/03/10 10:49:32;;;;;;;0.20;0.00;;;20.80;99.90;;;;;;21064320;28;20384;-71
2023/03/10 10:59:38;;;;;;;0.20;0.00;;;21.00;99.90;;;;;;21058330;28;20457;-73
2023/03/10 11:09:42;;;;;;;0.20;0.00;;;22.10;99.90;;;;;;21040766;28;20400;-70
2023/03/10 11:20:08;;;;;;;0.20;0.00;;;22.50;99.90;;;;;;21056872;28;20891;-72
2023/03/10 11:30:16;;;;;;;0.20;0.00;;;23.00;99.90;;;;;;21058484;28;20404;-71
2023/03/10 11:40:28;;;;;;;0.20;0.00;;;23.10;99.90;;;;;;21059807;28;20408;-71
2023/03/10 11:50:43;;;;;;;0.20;0.00;;;23.20;99.90;;;;;;21072540;28;20404;-71
2023/03/10 12:00:52;;;;;;;0.20;0.00;;;24.40;99.90;;;;;;21054041;28;20404;-71
2023/03/10 12:10:59;;;;;;;0.20;0.00;;;24.40;99.90;;;;;;21071636;28;20454;-71
2023/03/10 12:21:17;;;;;;;0.20;0.00;;;24.20;99.90;;;;;;21068531;28;20500;-70
2023/03/10 12:31:45;;;;;;;0.20;0.00;;;24.70;99.90;;;;;;21068688;28;20479;-71
2023/03/10 12:41:51;;;;;;;0.20;0.00;;;24.70;99.90;;;;;;21067782;28;20495;-71
2023/03/10 12:52:14;;;;;;;0.20;0.00;;;25.00;99.90;;;;;;21066194;28;20729;-72
2023/03/10 13:02:41;;;;;;;0.20;0.00;;;26.30;99.90;;;;;;21050214;28;20431;-70
2023/03/10 13:12:50;;;;;;;0.20;0.00;;;26.80;99.90;;;;;;21100710;28;20957;-70
2023/03/10 13:22:57;;;;;;;0.20;0.00;;;26.80;99.90;;;;;;21149913;28;20394;-70
2023/03/10 13:33:02;;;;;;;0.20;0.00;;;27.20;99.90;;;;;;21146365;28;20394;-67
2023/03/10 13:43:25;;;;;;;0.20;0.00;;;28.30;99.90;;;;;;21080625;28;20779;-70
2023/03/10 13:53:29;;;;;;;0.20;0.10;;;27.60;99.90;;;;;;21043916;28;20424;-71
2023/03/10 14:03:35;;;;;;;0.20;0.00;;;28.40;99.90;;;;;;21064144;28;20506;-63
2023/03/10 14:13:43;;;;;;;0.20;0.00;;;28.60;99.90;;;;;;21063028;28;20415;-71
2023/03/10 14:23:49;;;;;;;0.20;0.00;;;28.80;99.90;;;;;;21060403;28;20507;-70
2023/03/10 14:33:53;;;;;;;0.20;0.00;;;28.80;99.90;;;;;;21060523;28;20923;-70
2023/03/10 14:43:59;;;;;;;0.20;0.00;;;28.50;99.90;;;;;;21059613;28;20862;-69
2023/03/10 14:54:13;;;;;;;0.20;0.00;;;29.40;99.90;;;;;;21057599;28;20887;-66
2023/03/10 15:04:19;;;;;;;0.20;0.00;;;29.30;99.90;;;;;;21053725;28;21161;-70
2023/03/10 15:14:23;;;;;;;0.20;0.00;;;28.10;99.90;;;;;;21056075;28;20839;-67
2023/03/10 15:24:28;;;;;;;0.20;0.00;;;26.90;99.90;;;;;;21070743;28;20408;-70
2023/03/10 15:34:32;;;;;;;0.20;0.00;;;25.10;99.90;;;;;;21070225;28;20528;-69
2023/03/10 15:44:38;;;;;;;0.20;0.00;;;27.40;99.90;;;;;;21057174;28;20902;-70
2023/03/10 15:54:42;;;;;;;0.20;0.00;;;28.00;99.90;;;;;;21153094;28;20403;-68
2023/03/10 16:04:47;;;;;;;0.20;0.00;;;28.20;99.90;;;;;;21153457;28;20432;-69
2023/03/10 16:14:51;;;;;;;0.20;0.00;;;28.30;99.90;;;;;;21151366;28;20482;-69
2023/03/10 16:24:57;;;;;;;0.20;0.00;;;28.30;99.90;;;;;;21131238;28;20411;-69
2023/03/10 16:35:01;;;;;;;0.20;0.00;;;27.80;99.90;;;;;;21113833;28;20921;-70
2023/03/10 16:45:08;;;;;;;0.20;0.00;;;22.70;99.90;;;;;;21064002;28;20453;-65
2023/03/10 16:55:16;;;;;;;0.20;0.00;;;22.00;99.90;;;;;;21063019;28;21040;-69
2023/03/10 17:05:22;;;;;;;0.20;0.00;;;22.10;99.90;;;;;;21062675;28;20953;-69
2023/03/10 17:15:25;;;;;;;0.20;0.00;;;21.10;99.90;;;;;;21062316;28;20397;-70
2023/03/10 17:25:31;;;;;;;0.20;0.03;;;19.60;99.90;;;;;;21044485;28;20412;-71
2023/03/10 17:35:37;;;;;;;0.20;0.10;;;19.10;99.90;;;;;;21089457;28;20506;-69
2023/03/10 17:45:55;;;;;;;0.20;0.00;;;18.60;99.90;;;;;;21142026;28;20494;-69
2023/03/10 17:56:02;;;;;;;0.20;0.10;;;18.10;99.90;;;;;;21144453;28;20395;-71
2023/03/10 18:06:12;;;;;;;0.20;0.10;;;17.70;99.90;;;;;;21141014;28;20438;-71
2023/03/10 18:16:18;;;;;;;0.20;0.03;;;17.60;99.90;;;;;;21144323;28;20385;-71
2023/03/10 18:26:26;;;;;;;0.20;0.10;;;17.50;99.90;;;;;;21126647;28;20978;-74
2023/03/10 18:36:31;;;;;;;0.20;0.00;;;17.30;99.90;;;;;;21106470;27;20396;-71
2023/03/10 18:46:37;;;;;;;0.20;0.08;;;17.20;99.90;;;;;;21120107;28;20410;-72
2023/03/10 18:56:40;;;;;;;0.20;0.10;;;17.40;99.90;;;;;;21144196;28;20434;-71
2023/03/10 19:06:46;;;;;;;0.20;0.10;;;17.50;99.90;;;;;;21125334;28;20456;-71
2023/03/10 19:16:50;;;;;;;0.20;0.10;;;17.60;99.90;;;;;;21142820;28;20453;-70
2023/03/10 19:26:55;;;;;;;0.20;0.10;;;17.40;99.90;;;;;;21140958;28;20754;-71
2023/03/10 19:36:59;;;;;;;0.20;0.10;;;17.60;99.90;;;;;;21137797;28;20980;-71
2023/03/10 19:47:04;;;;;;;0.20;0.10;;;17.60;99.90;;;;;;21140812;28;20449;-71
2023/03/10 19:57:11;;;;;;;0.20;0.10;;;17.20;99.90;;;;;;21140512;28;20441;-70
2023/03/10 20:07:18;;;;;;;0.20;0.10;;;17.00;99.90;;;;;;21154915;28;20421;-71
2023/03/10 20:17:22;;;;;;;0.20;0.00;;;16.60;99.90;;;;;;21155136;27;20505;-70
2023/03/10 20:27:28;;;;;;;0.20;0.10;;;16.20;99.90;;;;;;21154261;27;20521;-71
2023/03/10 20:37:34;;;;;;;0.20;0.10;;;15.90;99.90;;;;;;21102513;28;20404;-71
2023/03/10 20:47:39;;;;;;;0.20;0.08;;;15.60;99.90;;;;;;21062410;28;20416;-71
2023/03/10 20:57:43;;;;;;;0.20;0.00;;;15.40;99.90;;;;;;21074615;28;20415;-72
2023/03/10 21:07:50;;;;;;;0.20;0.10;;;15.70;99.90;;;;;;21067501;28;20443;-69
2023/03/10 21:17:54;;;;;;;0.20;0.10;;;15.00;99.90;;;;;;21065195;28;20400;-69
2023/03/10 21:28:00;;;;;;;0.20;0.07;;;14.60;99.90;;;;;;21062220;28;20503;-70
2023/03/10 21:38:10;;;;;;;0.20;0.10;;;14.40;99.90;;;;;;21092926;28;20481;-69
2023/03/10 21:48:16;;;;;;;0.20;0.10;;;14.90;99.90;;;;;;21142872;28;20406;-69
2023/03/10 21:58:22;;;;;;;0.20;0.10;;;14.90;99.90;;;;;;21143939;28;20447;-70
2023/03/10 22:08:27;;;;;;;0.20;0.10;;;14.80;99.90;;;;;;21143391;28;20463;-70
2023/03/10 22:18:32;;;;;;;0.20;0.10;;;14.40;99.90;;;;;;21143733;28;20471;-71
2023/03/10 22:28:38;;;;;;;0.20;0.10;;;14.30;99.90;;;;;;21141429;28;20494;-71
2023/03/10 22:38:43;;;;;;;0.20;0.10;;;14.00;99.90;;;;;;21086616;28;20400;-69
2023/03/10 22:48:48;;;;;;;0.20;0.10;;;14.00;99.90;;;;;;21055589;28;20772;-70
2023/03/10 22:58:52;;;;;;;0.20;0.10;;;14.00;99.90;;;;;;21056582;28;20970;-70
2023/03/10 23:08:58;;;;;;;0.20;0.10;;;13.90;99.90;;;;;;21110135;28;20403;-71
2023/03/10 23:19:02;;;;;;;0.20;0.10;;;13.90;99.90;;;;;;21116310;28;20405;-73
2023/03/10 23:29:07;;;;;;;0.20;0.17;;;14.30;99.90;;;;;;21122297;28;20438;-70
2023/03/10 23:39:12;;;;;;;0.20;0.10;;;14.70;99.90;;;;;;21142590;28;20406;-70
2023/03/10 23:49:17;;;;;;;0.20;0.10;;;15.80;99.90;;;;;;21156441;28;20940;-71
2023/03/10 23:59:22;;;;;;;0.20;0.10;;;18.40;99.90;;;;;;21157538;27;20480;-72
